avis per tempestes more information blitzortung!


avis per Pluja more information rain snow radar


Visita la nostra xarxa de llocs de meteo:

Template documentation
and downloads

And another site



Thunderstorms From: 20-07-2018 17:00 Until: 21-07-2018 01:59 warning for: Thunderstorms Level: Yellow info button
Rain From: 20-07-2018 17:00 Until: 21-07-2018 01:59 warning for: Rain Level: Yellow info button

Pagina Historial Weather Underground text

Diari Resum Juny 29, 2017 Unitats:  Mètric    Imperial   Tant
« Previous Dia
SegĂźent Dia »
Diari Setmana Mensual Anual Personalitzada
  Maxima: Minima: Media:
Temperatura: -17.8 °C -9.4 °C -5.3 °C
Punt de rosada: -17.8 °C -16.7 °C -14.2 °C
Humitat: Humidity % 22 % 38 %
Wind Speed: 0 km/h 0 km/h 14.6 km/h
RĂ fegues de vent: 0 km/h - -
Vent:- - SW
Pression baro: 0 hPa 34029.3 hPa -
Precipitacions: 0 mm    
Historical Graphs
 
 
Dades de taula per Juny 29, 2017
Temps Temperatura Punt de rosada Pression baro Vent Wind Speed RĂ fegues de vent Humitat Rainfall Rate (Hourly)
-17.8 °C -17.8 °C 0 hPa Calm     Humidity % 0 mm
00:00 -7.3 °C -10.7 °C 34029.3 hPa NNE 11.9 km/h 11.9 km/h 68 % 0 mm
00:05 -7.3 °C -10.6 °C 34029.3 hPa ENE 9 km/h 9 km/h 69 % 0 mm
00:06 -7.3 °C -10.6 °C 34029.3 hPa NNE 10.3 km/h 10.3 km/h 69 % 0 mm
00:15 -9 °C -11.2 °C 34029.3 hPa SW 2.6 km/h 5.1 km/h 77 % 0 mm
00:25 -9.1 °C -11.4 °C 34029.3 hPa SW 2.6 km/h 5.1 km/h 76 % 0 mm
00:35 -9.2 °C -11.5 °C 34029.3 hPa SW 5.1 km/h 5.1 km/h 76 % 0 mm
00:45 -9 °C -11.6 °C 34029.3 hPa WSW 5.1 km/h 7.7 km/h 74 % 0 mm
00:55 -8.9 °C -11.4 °C 34029.3 hPa WSW 2.6 km/h 5.1 km/h 74 % 0 mm
01:05 -9 °C -11.6 °C 34029.3 hPa Calm   2.6 km/h 74 % 0 mm
01:15 -9.2 °C -11.7 °C 34063.2 hPa Calm   5.1 km/h 74 % 0 mm
01:25 -9.2 °C -11.7 °C 34063.2 hPa Calm   2.6 km/h 75 % 0 mm
01:35 -9.3 °C -11.9 °C 34063.2 hPa West 2.6 km/h 7.7 km/h 74 % 0 mm
01:45 -9.4 °C -11.9 °C 34063.2 hPa WSW 2.6 km/h 7.7 km/h 74 % 0 mm
01:55 -9.1 °C -11.7 °C 34063.2 hPa NNE 5.1 km/h 5.1 km/h 74 % 0 mm
02:05 -8.7 °C -11.7 °C 34063.2 hPa East 5.1 km/h 7.7 km/h 70 % 0 mm
02:15 -8.5 °C -11.9 °C 34063.2 hPa SE 5.1 km/h 7.7 km/h 67 % 0 mm
02:25 -8.1 °C -12.1 °C 34063.2 hPa ENE 5.1 km/h 7.7 km/h 63 % 0 mm
02:35 -8.2 °C -12.1 °C 34063.2 hPa ENE 5.1 km/h 7.7 km/h 64 % 0 mm
02:45 -7.9 °C -11.8 °C 34063.2 hPa SSE 2.6 km/h 7.7 km/h 63 % 0 mm
02:55 -7.8 °C -11.9 °C 34063.2 hPa SSE 2.6 km/h 5.1 km/h 62 % 0 mm
03:05 -7.7 °C -11.9 °C 34063.2 hPa WSW 5.1 km/h 7.7 km/h 61 % 0 mm
03:15 -7.6 °C -12 °C 34097 hPa West 5.1 km/h 12.9 km/h 60 % 0 mm
03:25 -7.6 °C -12.3 °C 34063.2 hPa West 7.7 km/h 10.3 km/h 58 % 0 mm
03:35 -7.4 °C -12.3 °C 34063.2 hPa West 12.9 km/h 15.6 km/h 57 % 0 mm
03:45 -7.4 °C -12.4 °C 34063.2 hPa WSW 7.7 km/h 7.7 km/h 56 % 0 mm
03:55 -7.4 °C -12.6 °C 34097 hPa WSW 15.6 km/h 18.2 km/h 55 % 0 mm
04:05 -7.3 °C -12.6 °C 34097 hPa West 5.1 km/h 15.6 km/h 54 % 0 mm
04:15 -7 °C -12.4 °C 34097 hPa West 7.7 km/h 15.6 km/h 53 % 0 mm
04:25 -6.8 °C -12.4 °C 34097 hPa West 7.7 km/h 15.6 km/h 52 % 0 mm
04:35 -6.9 °C -12.9 °C 34097 hPa WSW 7.7 km/h 28.5 km/h 50 % 0 mm
04:45 -6.6 °C -12.6 °C 34097 hPa WSW 7.7 km/h 15.6 km/h 50 % 0 mm
04:55 -6.6 °C -12.7 °C 34097 hPa WSW 7.7 km/h 20.8 km/h 49 % 0 mm
05:05 -6.3 °C -12.5 °C 34097 hPa West 7.7 km/h 10.3 km/h 49 % 0 mm
05:15 -6.1 °C -12.4 °C 34097 hPa WSW 5.1 km/h 7.7 km/h 48 % 0 mm
05:25 -5.8 °C -12.4 °C 34097 hPa West 7.7 km/h 20.8 km/h 47 % 0 mm
05:35 -5.6 °C -12.3 °C 34097 hPa West 7.7 km/h 10.3 km/h 46 % 0 mm
05:45 -5.2 °C -12.2 °C 34063.2 hPa West 15.6 km/h 15.6 km/h 45 % 0 mm
05:55 -5.3 °C -12.8 °C 34063.2 hPa WSW 7.7 km/h 20.8 km/h 42 % 0 mm
06:05 -5.1 °C -13.1 °C 34063.2 hPa WSW 5.1 km/h 12.9 km/h 40 % 0 mm
06:15 -5.2 °C -13.3 °C 34063.2 hPa WSW 12.9 km/h 20.8 km/h 39 % 0 mm
11:16 -5 °C -13.4 °C 34063.2 hPa SW 53.6 km/h 53.6 km/h 38 % 0 mm
11:21 -5 °C -13.6 °C 34063.2 hPa WNW 19.2 km/h 19.2 km/h 37 % 0 mm
11:26 -4.8 °C -13.4 °C 34063.2 hPa SW 20.9 km/h 20.9 km/h 37 % 0 mm
11:31 -4.9 °C -13.6 °C 34063.2 hPa SW 32.8 km/h 32.8 km/h 37 % 0 mm
11:36 -4.8 °C -13.4 °C 34063.2 hPa WSW 23.8 km/h 23.8 km/h 37 % 0 mm
11:41 -4.7 °C -13.4 °C 34063.2 hPa WSW 15 km/h 15 km/h 37 % 0 mm
11:46 -4.4 °C -13.1 °C 34063.2 hPa East 11.9 km/h 11.9 km/h 37 % 0 mm
11:51 -4.3 °C -13.2 °C 34063.2 hPa SW 20.9 km/h 20.9 km/h 36 % 0 mm
11:56 -4.3 °C -12.9 °C 34063.2 hPa West 10.3 km/h 10.3 km/h 37 % 0 mm
12:01 -4.5 °C -13.4 °C 34063.2 hPa WSW 17.9 km/h 17.9 km/h 36 % 0 mm
12:06 -4.3 °C -13.4 °C 34063.2 hPa SW 19.6 km/h 19.6 km/h 35 % 0 mm
12:11 -4.3 °C -13.7 °C 34063.2 hPa WSW 20.9 km/h 20.9 km/h 34 % 0 mm
12:16 -4.2 °C -13.6 °C 34063.2 hPa SW 20.9 km/h 20.9 km/h 34 % 0 mm
12:17 -4.2 °C -13.6 °C 34063.2 hPa West 16.1 km/h 16.1 km/h 34 % 0 mm
12:22 -4.4 °C -14.2 °C 34063.2 hPa West 20.3 km/h 20.3 km/h 32 % 0 mm
12:27 -4.2 °C -14.1 °C 34063.2 hPa SW 11.9 km/h 11.9 km/h 32 % 0 mm
12:32 -4.1 °C -13.7 °C 34063.2 hPa SSW 23.8 km/h 23.8 km/h 33 % 0 mm
12:37 -4.1 °C -13.9 °C 34063.2 hPa WNW 20.9 km/h 20.9 km/h 32 % 0 mm
12:42 -4.1 °C -14.3 °C 34063.2 hPa SW 20.9 km/h 20.9 km/h 31 % 0 mm
12:47 -4.2 °C -14.3 °C 34063.2 hPa WSW 23.8 km/h 23.8 km/h 31 % 0 mm
12:52 -4.3 °C -14.4 °C 34063.2 hPa WNW 17.9 km/h 17.9 km/h 31 % 0 mm
12:57 -3.9 °C -14.3 °C 34063.2 hPa West 12.2 km/h 12.2 km/h 30 % 0 mm
13:02 -3.8 °C -13.9 °C 34063.2 hPa WSW 15 km/h 15 km/h 31 % 0 mm
13:07 -3.7 °C -13.9 °C 34063.2 hPa West 23.8 km/h 23.8 km/h 31 % 0 mm
13:12 -3.7 °C -14.1 °C 34063.2 hPa WSW 27.2 km/h 27.2 km/h 30 % 0 mm
13:17 -3.7 °C -14.2 °C 34063.2 hPa West 22.5 km/h 22.5 km/h 30 % 0 mm
13:22 -3.6 °C -14.1 °C 34063.2 hPa SW 15.6 km/h 15.6 km/h 30 % 0 mm
13:27 -3.7 °C -14.4 °C 34063.2 hPa WSW 20.3 km/h 20.3 km/h 29 % 0 mm
13:32 -3.7 °C -14.4 °C 34063.2 hPa West 20.9 km/h 20.9 km/h 29 % 0 mm
13:37 -3.3 °C -14.1 °C 34063.2 hPa NNW 9 km/h 9.3 km/h 29 % 0 mm
13:42 -3.7 °C -14.4 °C 34063.2 hPa WNW 23.8 km/h 23.8 km/h 29 % 0 mm
13:47 -3.8 °C -14.8 °C 34063.2 hPa WSW 32.8 km/h 32.8 km/h 28 % 0 mm
13:52 -3.6 °C -14.6 °C 34063.2 hPa WSW 19.6 km/h 19.6 km/h 28 % 0 mm
13:57 -3.6 °C -14.6 °C 34097 hPa West 23.8 km/h 23.8 km/h 28 % 0 mm
14:02 -3.5 °C -14.6 °C 34097 hPa West 20.9 km/h 20.9 km/h 28 % 0 mm
14:07 -3.4 °C -14.4 °C 34097 hPa WSW 11.9 km/h 11.9 km/h 28 % 0 mm
14:12 -3.3 °C -14.3 °C 34097 hPa SW 17.9 km/h 17.9 km/h 28 % 0 mm
14:17 -3.2 °C -14.3 °C 34097 hPa SW 15 km/h 15 km/h 28 % 0 mm
14:22 -3.4 °C -14.4 °C 34097 hPa West 25.1 km/h 25.1 km/h 28 % 0 mm
14:27 -3.4 °C -14.8 °C 34097 hPa WSW 26.9 km/h 26.9 km/h 27 % 0 mm
14:32 -3.4 °C -14.8 °C 34097 hPa SW 26.9 km/h 26.9 km/h 27 % 0 mm
14:37 -3.3 °C -14.7 °C 34097 hPa SSE 11.1 km/h 11.1 km/h 27 % 0 mm
14:42 -3.2 °C -14.6 °C 34097 hPa South 23.8 km/h 23.8 km/h 27 % 0 mm
14:47 -3.1 °C -14.4 °C 34097 hPa West 15 km/h 15 km/h 27 % 0 mm
14:52 -3.3 °C -14.3 °C 34097 hPa WSW 14.5 km/h 14.5 km/h 28 % 0 mm
14:57 -3.3 °C -14.7 °C 34097 hPa West 15 km/h 15 km/h 27 % 0 mm
15:02 -3.2 °C -14.6 °C 34097 hPa WSW 20.9 km/h 20.9 km/h 27 % 0 mm
15:05 -2.9 °C -14.3 °C 34097 hPa South 12.7 km/h 12.7 km/h 27 % 0 mm
15:10 -3.1 °C -14.4 °C 34097 hPa WSW 23.8 km/h 23.8 km/h 27 % 0 mm
15:15 -3.1 °C -14.4 °C 34063.2 hPa WNW 31.9 km/h 31.9 km/h 27 % 0 mm
15:20 -3 °C -14.4 °C 34063.2 hPa SW 32.8 km/h 32.8 km/h 27 % 0 mm
15:25 -3.1 °C -14.8 °C 34063.2 hPa WSW 20.9 km/h 20.9 km/h 26 % 0 mm
15:30 -3.1 °C -14.4 °C 34063.2 hPa South 23.8 km/h 23.8 km/h 27 % 0 mm
15:35 -3.4 °C -14.8 °C 34063.2 hPa SW 15.6 km/h 15.6 km/h 27 % 0 mm
15:40 -3.6 °C -15.2 °C 34063.2 hPa SSW 23.8 km/h 23.8 km/h 26 % 0 mm
15:45 -3.7 °C -15.1 °C 34063.2 hPa WSW 20.9 km/h 20.9 km/h 27 % 0 mm
15:46 -3.7 °C -15.3 °C 34063.2 hPa West 29.8 km/h 29.8 km/h 26 % 0 mm
15:51 -3.3 °C -14.9 °C 34063.2 hPa West 20.9 km/h 20.9 km/h 26 % 0 mm
15:56 -3.6 °C -15.2 °C 34063.2 hPa WSW 15 km/h 15 km/h 26 % 0 mm
16:01 -3.2 °C -14.9 °C 34063.2 hPa West 15 km/h 15 km/h 26 % 0 mm
16:06 -3 °C -14.4 °C 34063.2 hPa WSW 32.8 km/h 32.8 km/h 27 % 0 mm
16:11 -3.1 °C -14.8 °C 34063.2 hPa WSW 23.8 km/h 23.8 km/h 26 % 0 mm
16:16 -2.9 °C -14.7 °C 34063.2 hPa NNW 15 km/h 15 km/h 26 % 0 mm
16:21 -3.1 °C -14.8 °C 34063.2 hPa WSW 26.9 km/h 26.9 km/h 26 % 0 mm
16:26 -2.9 °C -14.7 °C 34063.2 hPa West 26.4 km/h 26.4 km/h 26 % 0 mm
16:31 -3 °C -14.7 °C 34063.2 hPa SW 15.3 km/h 15.3 km/h 26 % 0 mm
16:36 -3.1 °C -14.8 °C 34063.2 hPa NNW 26.9 km/h 26.9 km/h 26 % 0 mm
16:41 -3.1 °C -14.8 °C 34063.2 hPa NNW 26.9 km/h 26.9 km/h 26 % 0 mm
16:46 -3.5 °C -15.2 °C 34063.2 hPa West 15 km/h 15 km/h 26 % 0 mm
16:51 -3.2 °C -14.9 °C 34063.2 hPa WNW 29.8 km/h 29.8 km/h 26 % 0 mm
16:56 -3 °C -15.1 °C 34063.2 hPa SW 23.8 km/h 23.8 km/h 25 % 0 mm
17:01 -3.2 °C -15.2 °C 34063.2 hPa WSW 20.9 km/h 20.9 km/h 25 % 0 mm
17:06 -3.1 °C -15.1 °C 34063.2 hPa West 38.8 km/h 38.8 km/h 25 % 0 mm
17:07 -3 °C -15.1 °C 34063.2 hPa SW 15 km/h 15 km/h 25 % 0 mm
17:12 -2.8 °C -14.9 °C 34063.2 hPa WSW 27.2 km/h 27.2 km/h 25 % 0 mm
17:17 -3.1 °C -15.1 °C 34063.2 hPa SW 20.9 km/h 20.9 km/h 25 % 0 mm
17:22 -2.9 °C -14.9 °C 34063.2 hPa West 15 km/h 15 km/h 25 % 0 mm
17:27 -3 °C -15.1 °C 34063.2 hPa WNW 20.9 km/h 20.9 km/h 25 % 0 mm
17:32 -2.9 °C -14.9 °C 34063.2 hPa WSW 23.8 km/h 23.8 km/h 25 % 0 mm
17:37 -2.8 °C -15.2 °C 34063.2 hPa WSW 38.8 km/h 38.8 km/h 24 % 0 mm
17:42 -3.1 °C -15.4 °C 34063.2 hPa WSW 17.9 km/h 17.9 km/h 24 % 0 mm
17:47 -3.1 °C -15.4 °C 34063.2 hPa West 20.9 km/h 20.9 km/h 24 % 0 mm
17:52 -3 °C -15.3 °C 34063.2 hPa WSW 23.8 km/h 23.8 km/h 24 % 0 mm
17:57 -2.9 °C -15.3 °C 34029.3 hPa WSW 15 km/h 15 km/h 24 % 0 mm
18:02 -2.9 °C -15.2 °C 34029.3 hPa West 23.8 km/h 23.8 km/h 24 % 0 mm
18:07 -2.8 °C -15.2 °C 34029.3 hPa West 29.8 km/h 29.8 km/h 24 % 0 mm
18:12 -3 °C -15.3 °C 34063.2 hPa WSW 20.9 km/h 20.9 km/h 24 % 0 mm
18:17 -2.9 °C -15.3 °C 34063.2 hPa WSW 17.9 km/h 17.9 km/h 24 % 0 mm
18:22 -3.2 °C -15.9 °C 34063.2 hPa NW 23.8 km/h 23.8 km/h 23 % 0 mm
18:27 -3.1 °C -15.7 °C 34063.2 hPa SSW 23.8 km/h 23.8 km/h 23 % 0 mm
18:32 -3.1 °C -15.8 °C 34063.2 hPa WSW 35.7 km/h 35.7 km/h 23 % 0 mm
18:37 -3.3 °C -16.3 °C 34063.2 hPa West 23.8 km/h 23.8 km/h 22 % 0 mm
18:42 -3.3 °C -16.3 °C 34063.2 hPa WSW 17.9 km/h 17.9 km/h 22 % 0 mm
18:47 -3.3 °C -16.3 °C 34063.2 hPa West 23.8 km/h 23.8 km/h 22 % 0 mm
18:52 -3.3 °C -16.3 °C 34063.2 hPa West 24.3 km/h 24.3 km/h 22 % 0 mm
18:57 -3.4 °C -16.3 °C 34063.2 hPa West 15 km/h 15 km/h 22 % 0 mm
19:02 -3.4 °C -16.3 °C 34063.2 hPa WSW 17.9 km/h 17.9 km/h 22 % 0 mm
19:07 -3.3 °C -16.3 °C 34063.2 hPa SW 20.9 km/h 20.9 km/h 22 % 0 mm
19:12 -3.4 °C -16.3 °C 34063.2 hPa SW 20.9 km/h 20.9 km/h 22 % 0 mm
19:17 -3.4 °C -16.4 °C 34063.2 hPa SW 6 km/h 6 km/h 22 % 0 mm
19:22 -3.4 °C -16.4 °C 34063.2 hPa WNW 32.8 km/h 32.8 km/h 22 % 0 mm
19:27 -3.6 °C -16.6 °C 34063.2 hPa WNW 23.8 km/h 23.8 km/h 22 % 0 mm
19:32 -3.6 °C -16.5 °C 34063.2 hPa NW 23.8 km/h 23.8 km/h 22 % 0 mm
19:35 -7.3 °C -13.2 °C 34198.6 hPa East 5.1 km/h 10.3 km/h 50 % 0 mm
19:37 -3.6 °C -16.5 °C 34063.2 hPa WSW 15 km/h 15 km/h 22 % 0 mm
19:42 -3.6 °C -16.6 °C 34063.2 hPa West 11.9 km/h 11.9 km/h 22 % 0 mm
19:45 -7.4 °C -13.5 °C 34198.6 hPa East 5.1 km/h 7.7 km/h 49 % 0 mm
19:47 -3.6 °C -16.2 °C 34063.2 hPa WSW 11.9 km/h 11.9 km/h 23 % 0 mm
19:52 -3.6 °C -16.2 °C 34063.2 hPa WSW 20.9 km/h 20.9 km/h 23 % 0 mm
19:55 -7.5 °C -13.6 °C 34198.6 hPa East 12.9 km/h 12.9 km/h 49 % 0 mm
19:57 -3.7 °C -16.6 °C 34063.2 hPa West 15 km/h 15 km/h 22 % 0 mm
20:02 -3.7 °C -16.6 °C 34063.2 hPa SSE 9 km/h 9 km/h 22 % 0 mm
20:05 -7.5 °C -13.6 °C 34198.6 hPa ENE 5.1 km/h 15.6 km/h 49 % 0 mm
20:07 -3.8 °C -16.7 °C 34063.2 hPa SW 20.9 km/h 20.9 km/h 22 % 0 mm
20:12 -3.9 °C -16.5 °C 34063.2 hPa West 20.9 km/h 20.9 km/h 23 % 0 mm
20:15 -7.6 °C -13.7 °C 34164.7 hPa NE 5.1 km/h 7.7 km/h 49 % 0 mm
20:17 -4 °C -16.6 °C 34063.2 hPa SSE 11.9 km/h 11.9 km/h 23 % 0 mm
20:22 -4.1 °C -16.6 °C 34063.2 hPa WNW 19.6 km/h 19.6 km/h 23 % 0 mm
20:25 -7.7 °C -13.7 °C 34164.7 hPa NE 5.1 km/h 10.3 km/h 49 % 0 mm
20:27 -4.1 °C -16.2 °C 34063.2 hPa WSW 16.1 km/h 16.1 km/h 24 % 0 mm
20:32 -4.1 °C -16.3 °C 34063.2 hPa South 9 km/h 9 km/h 24 % 0 mm
20:35 -7.7 °C -13.8 °C 34164.7 hPa East 7.7 km/h 7.7 km/h 49 % 0 mm
20:37 -4.2 °C -16.1 °C 34063.2 hPa West 11.9 km/h 11.9 km/h 25 % 0 mm
20:42 -4.6 °C -15.4 °C 34063.2 hPa South 17.9 km/h 17.9 km/h 28 % 0 mm
20:45 -7.7 °C -13.8 °C 34198.6 hPa ESE 7.7 km/h 15.6 km/h 49 % 0 mm
20:47 -4.8 °C -15.7 °C 34063.2 hPa SW 19.6 km/h 19.6 km/h 28 % 0 mm
20:52 -4.9 °C -15.4 °C 34063.2 hPa SW 32.8 km/h 32.8 km/h 29 % 0 mm
20:55 -7.7 °C -13.8 °C 34198.6 hPa East 5.1 km/h 10.3 km/h 49 % 0 mm
20:57 -5 °C -15.3 °C 34097 hPa SW 20.9 km/h 20.9 km/h 30 % 0 mm
21:02 -5.1 °C -15.1 °C 34097 hPa SSW 20.9 km/h 20.9 km/h 31 % 0 mm
21:05 -7.8 °C -14 °C 34198.6 hPa ENE 7.7 km/h 12.9 km/h 48 % 0 mm
21:07 -5.2 °C -15.2 °C 34097 hPa SW 15.6 km/h 15.6 km/h 31 % 0 mm
21:12 -5.3 °C -15.1 °C 34097 hPa SW 11.9 km/h 11.9 km/h 32 % 0 mm
21:15 -7.8 °C -14.1 °C 34164.7 hPa NE 5.1 km/h 10.3 km/h 48 % 0 mm
21:17 -5.4 °C -15.1 °C 34097 hPa SSW 23.8 km/h 23.8 km/h 32 % 0 mm
21:22 -5.5 °C -14.9 °C 34097 hPa SW 17.9 km/h 17.9 km/h 33 % 0 mm
21:25 -7.9 °C -14 °C 34198.6 hPa NE 5.1 km/h 10.3 km/h 49 % 0 mm
21:27 -5.6 °C -14.8 °C 34097 hPa WSW 9 km/h 9.3 km/h 34 % 0 mm
21:32 -5.6 °C -14.8 °C 34097 hPa SW 17.9 km/h 17.9 km/h 34 % 0 mm
21:35 -8 °C -14 °C 34198.6 hPa NE 2.6 km/h 7.7 km/h 49 % 0 mm
21:37 -5.7 °C -14.6 °C 34097 hPa SW 15 km/h 15 km/h 35 % 0 mm
21:42 -5.8 °C -14.7 °C 34097 hPa SSW 15 km/h 15 km/h 35 % 0 mm
21:45 -8.1 °C -14.1 °C 34198.6 hPa Calm   7.7 km/h 49 % 0 mm
21:47 -5.8 °C -14.6 °C 34097 hPa SW 15 km/h 15 km/h 36 % 0 mm
21:52 -5.9 °C -14.6 °C 34097 hPa SW 11.9 km/h 11.9 km/h 36 % 0 mm
21:55 -8.2 °C -14.2 °C 34198.6 hPa Calm   2.6 km/h 49 % 0 mm
21:57 -5.9 °C -14.4 °C 34097 hPa SW 11.9 km/h 11.9 km/h 37 % 0 mm
22:02 -6 °C -14.3 °C 34097 hPa West 11.9 km/h 11.9 km/h 38 % 0 mm
22:05 -8.2 °C -14.2 °C 34198.6 hPa ENE 5.1 km/h 5.1 km/h 49 % 0 mm
22:07 -6 °C -14.1 °C 34097 hPa SW 11.9 km/h 11.9 km/h 39 % 0 mm
22:12 -6.1 °C -14.2 °C 34130.9 hPa WSW 15 km/h 15 km/h 39 % 0 mm
22:15 -8.3 °C -14.3 °C 34198.6 hPa ENE 2.6 km/h 5.1 km/h 49 % 0 mm
22:17 -6.2 °C -14 °C 34130.9 hPa SW 9 km/h 9.3 km/h 40 % 0 mm
22:22 -6.3 °C -13.9 °C 34130.9 hPa SW 11.9 km/h 11.9 km/h 41 % 0 mm
22:25 -8.4 °C -14.1 °C 34198.6 hPa NE 2.6 km/h 5.1 km/h 51 % 0 mm
22:27 -6.3 °C -13.9 °C 34097 hPa SW 11.9 km/h 11.9 km/h 41 % 0 mm
22:32 -6.3 °C -13.8 °C 34097 hPa SW 9 km/h 9 km/h 42 % 0 mm
22:35 -8.4 °C -14.1 °C 34198.6 hPa ENE 2.6 km/h 7.7 km/h 51 % 0 mm
22:37 -6.4 °C -13.8 °C 34097 hPa West 17.9 km/h 17.9 km/h 42 % 0 mm
22:42 -6.4 °C -13.7 °C 34130.9 hPa WSW 9 km/h 9 km/h 43 % 0 mm
22:45 -8.4 °C -14.1 °C 34198.6 hPa ENE 2.6 km/h 7.7 km/h 51 % 0 mm
22:47 -6.5 °C -13.7 °C 34130.9 hPa SW 9 km/h 9 km/h 43 % 0 mm
22:52 -6.6 °C -13.6 °C 34130.9 hPa SW 9 km/h 9 km/h 44 % 0 mm
22:55 -8.4 °C -14.1 °C 34198.6 hPa ENE 5.1 km/h 7.7 km/h 51 % 0 mm
22:57 -6.6 °C -13.7 °C 34130.9 hPa SW 7.6 km/h 7.6 km/h 44 % 0 mm
23:02 -6.7 °C -13.5 °C 34130.9 hPa WSW 9.3 km/h 9.3 km/h 45 % 0 mm
23:05 -8.4 °C -14.1 °C 34198.6 hPa ENE 7.7 km/h 7.7 km/h 51 % 0 mm
23:07 -6.7 °C -13.5 °C 34130.9 hPa SW 7.6 km/h 7.6 km/h 45 % 0 mm
23:12 -6.7 °C -13.6 °C 34130.9 hPa SSW 8 km/h 8 km/h 45 % 0 mm
23:15 -8.4 °C -13.9 °C 34198.6 hPa ENE 5.1 km/h 5.1 km/h 52 % 0 mm
23:17 -6.8 °C -13.4 °C 34130.9 hPa SW 6 km/h 6 km/h 46 % 0 mm
23:22 -6.8 °C -13.4 °C 34130.9 hPa SW 6 km/h 6 km/h 46 % 0 mm
23:25 -8.4 °C -13.9 °C 34164.7 hPa NE 5.1 km/h 7.7 km/h 52 % 0 mm
23:27 -6.8 °C -13.5 °C 34164.7 hPa SW 6 km/h 6 km/h 46 % 0 mm
23:32 -6.8 °C -13.3 °C 34164.7 hPa West 3.1 km/h   47 % 0 mm
23:35 -8.5 °C -14 °C 34164.7 hPa Calm   7.7 km/h 52 % 0 mm
23:37 -6.8 °C -13.1 °C 34164.7 hPa NE 3.1 km/h 3.1 km/h 48 % 0 mm
23:42 -6.8 °C -13.1 °C 34164.7 hPa ENE 6 km/h 6 km/h 48 % 0 mm
23:45 -8.6 °C -14.1 °C 34198.6 hPa Calm   7.7 km/h 52 % 0 mm
23:47 -6.8 °C -13.1 °C 34164.7 hPa ENE 9 km/h 9 km/h 48 % 0 mm
23:52 -6.8 °C -13.1 °C 34164.7 hPa ENE 6 km/h 6 km/h 48 % 0 mm
23:55 -8.7 °C -14.2 °C 34198.6 hPa NE 5.1 km/h 7.7 km/h 52 % 0 mm
23:57 -6.9 °C -13.2 °C 34164.7 hPa ENE 6 km/h 6 km/h 48 % 0 mm
Meteo Sesrovires
Elogis d' Weather Underground - 2 mb

Guio original per  Jim McMurry - jmcmurry@mwt.net Adaptat per a la plantilla per  Wim van der Kuil - Leuven-Template.eu

Trobareu la nostra informacio del temps tambe a:

Weather Underground

AWEKAS